sensor_id;sensor_type;location;lat;lon;timestamp;temperature;humidity
3232;DHT22;1628;48.884;9.210;2022-10-31T05:00:43;12.10;99.90
3232;DHT22;1628;48.884;9.210;2022-10-31T05:03:10;12.10;99.90
3232;DHT22;1628;48.884;9.210;2022-10-31T05:05:37;12.10;99.90
3232;DHT22;1628;48.884;9.210;2022-10-31T05:08:04;12.00;99.90
3232;DHT22;1628;48.884;9.210;2022-10-31T05:10:31;12.00;99.90
3232;DHT22;1628;48.884;9.210;2022-10-31T05:12:59;11.90;99.90
3232;DHT22;1628;48.884;9.210;2022-10-31T05:15:27;11.90;99.90
3232;DHT22;1628;48.884;9.210;2022-10-31T05:17:56;11.90;99.90
3232;DHT22;1628;48.884;9.210;2022-10-31T05:20:25;12.00;99.90
3232;DHT22;1628;48.884;9.210;2022-10-31T05:22:53;12.00;99.90
3232;DHT22;1628;48.884;9.210;2022-10-31T05:25:22;12.00;99.90
3232;DHT22;1628;48.884;9.210;2022-10-31T05:27:51;11.90;99.90
3232;DHT22;1628;48.884;9.210;2022-10-31T05:30:19;11.90;99.90
3232;DHT22;1628;48.884;9.210;2022-10-31T05:32:48;11.90;99.90
3232;DHT22;1628;48.884;9.210;2022-10-31T05:35:18;11.90;99.90
3232;DHT22;1628;48.884;9.210;2022-10-31T05:37:45;12.00;99.90
3232;DHT22;1628;48.884;9.210;2022-10-31T05:40:13;11.90;99.90
3232;DHT22;1628;48.884;9.210;2022-10-31T05:42:41;11.90;99.90
3232;DHT22;1628;48.884;9.210;2022-10-31T05:45:08;11.80;99.90
3232;DHT22;1628;48.884;9.210;2022-10-31T05:47:35;11.80;99.90
3232;DHT22;1628;48.884;9.210;2022-10-31T05:50:03;11.80;99.90
3232;DHT22;1628;48.884;9.210;2022-10-31T05:52:31;11.80;99.90
3232;DHT22;1628;48.884;9.210;2022-10-31T05:54:58;11.70;99.90
3232;DHT22;1628;48.884;9.210;2022-10-31T05:57:24;11.70;99.90
3232;DHT22;1628;48.884;9.210;2022-10-31T05:59:51;11.70;99.90
3232;DHT22;1628;48.884;9.210;2022-10-31T06:02:18;11.70;99.90
3232;DHT22;1628;48.884;9.210;2022-10-31T06:04:45;11.60;99.90
3232;DHT22;1628;48.884;9.210;2022-10-31T06:07:12;11.60;99.90
3232;DHT22;1628;48.884;9.210;2022-10-31T06:09:40;11.60;99.90
3232;DHT22;1628;48.884;9.210;2022-10-31T06:12:06;11.60;99.90
3232;DHT22;1628;48.884;9.210;2022-10-31T06:14:33;11.60;99.90
3232;DHT22;1628;48.884;9.210;2022-10-31T06:17:00;11.50;99.90
3232;DHT22;1628;48.884;9.210;2022-10-31T06:19:26;11.50;99.90
3232;DHT22;1628;48.884;9.210;2022-10-31T06:21:53;11.50;99.90
3232;DHT22;1628;48.884;9.210;2022-10-31T06:24:20;11.50;99.90
3232;DHT22;1628;48.884;9.210;2022-10-31T06:26:48;11.50;99.90
3232;DHT22;1628;48.884;9.210;2022-10-31T06:29:14;11.50;99.90
3232;DHT22;1628;48.884;9.210;2022-10-31T06:31:41;11.50;99.90
3232;DHT22;1628;48.884;9.210;2022-10-31T06:34:08;11.50;99.90
3232;DHT22;1628;48.884;9.210;2022-10-31T06:36:34;11.60;99.90
3232;DHT22;1628;48.884;9.210;2022-10-31T06:39:01;11.60;99.90
3232;DHT22;1628;48.884;9.210;2022-10-31T06:41:27;11.70;99.90
3232;DHT22;1628;48.884;9.210;2022-10-31T06:43:55;11.80;99.90
3232;DHT22;1628;48.884;9.210;2022-10-31T06:46:22;11.80;99.90
3232;DHT22;1628;48.884;9.210;2022-10-31T06:48:49;12.00;99.90
3232;DHT22;1628;48.884;9.210;2022-10-31T06:51:15;12.10;99.90
3232;DHT22;1628;48.884;9.210;2022-10-31T06:53:42;12.20;99.90
3232;DHT22;1628;48.884;9.210;2022-10-31T06:56:08;12.20;99.90
3232;DHT22;1628;48.884;9.210;2022-10-31T06:58:35;12.30;99.90
3232;DHT22;1628;48.884;9.210;2022-10-31T07:01:03;12.50;99.90
3232;DHT22;1628;48.884;9.210;2022-10-31T07:03:30;12.70;99.90
3232;DHT22;1628;48.884;9.210;2022-10-31T07:05:57;12.90;99.90
3232;DHT22;1628;48.884;9.210;2022-10-31T07:08:24;13.10;99.90
3232;DHT22;1628;48.884;9.210;2022-10-31T07:10:52;13.20;99.90
3232;DHT22;1628;48.884;9.210;2022-10-31T07:13:19;13.50;99.90
3232;DHT22;1628;48.884;9.210;2022-10-31T07:15:50;13.60;99.90
3232;DHT22;1628;48.884;9.210;2022-10-31T07:18:18;13.80;99.90
3232;DHT22;1628;48.884;9.210;2022-10-31T07:20:45;14.00;99.90
3232;DHT22;1628;48.884;9.210;2022-10-31T07:23:11;14.40;99.90
3232;DHT22;1628;48.884;9.210;2022-10-31T07:25:39;15.00;99.90
3232;DHT22;1628;48.884;9.210;2022-10-31T07:28:06;15.60;99.90
3232;DHT22;1628;48.884;9.210;2022-10-31T07:30:33;16.00;99.90
3232;DHT22;1628;48.884;9.210;2022-10-31T07:32:59;16.40;99.90
3232;DHT22;1628;48.884;9.210;2022-10-31T07:35:28;16.50;99.90
3232;DHT22;1628;48.884;9.210;2022-10-31T07:37:55;16.60;99.90
3232;DHT22;1628;48.884;9.210;2022-10-31T07:40:22;16.80;99.90
3232;DHT22;1628;48.884;9.210;2022-10-31T07:42:51;16.90;99.90
3232;DHT22;1628;48.884;9.210;2022-10-31T07:45:19;17.10;99.90
3232;DHT22;1628;48.884;9.210;2022-10-31T07:47:47;17.30;99.90
3232;DHT22;1628;48.884;9.210;2022-10-31T07:50:16;17.40;99.90
3232;DHT22;1628;48.884;9.210;2022-10-31T07:52:44;17.40;99.90
3232;DHT22;1628;48.884;9.210;2022-10-31T07:55:11;17.60;99.90
3232;DHT22;1628;48.884;9.210;2022-10-31T07:57:38;17.80;99.90
3232;DHT22;1628;48.884;9.210;2022-10-31T08:00:06;18.10;99.90
3232;DHT22;1628;48.884;9.210;2022-10-31T08:02:33;18.30;99.90
3232;DHT22;1628;48.884;9.210;2022-10-31T08:05:00;18.40;99.90
3232;DHT22;1628;48.884;9.210;2022-10-31T08:07:28;18.40;99.90
3232;DHT22;1628;48.884;9.210;2022-10-31T08:09:56;18.50;99.90
3232;DHT22;1628;48.884;9.210;2022-10-31T08:12:25;18.70;99.90
3232;DHT22;1628;48.884;9.210;2022-10-31T08:14:52;19.00;99.90
3232;DHT22;1628;48.884;9.210;2022-10-31T08:17:19;19.10;99.90
3232;DHT22;1628;48.884;9.210;2022-10-31T08:19:45;19.20;99.90
3232;DHT22;1628;48.884;9.210;2022-10-31T08:22:12;19.20;99.90
3232;DHT22;1628;48.884;9.210;2022-10-31T08:24:39;19.20;99.90
3232;DHT22;1628;48.884;9.210;2022-10-31T08:27:07;19.30;99.90
3232;DHT22;1628;48.884;9.210;2022-10-31T08:29:33;19.20;99.90
3232;DHT22;1628;48.884;9.210;2022-10-31T08:32:00;19.10;99.90
3232;DHT22;1628;48.884;9.210;2022-10-31T08:34:27;19.10;99.90
3232;DHT22;1628;48.884;9.210;2022-10-31T08:36:53;19.10;99.90
3232;DHT22;1628;48.884;9.210;2022-10-31T08:39:20;19.00;99.90
3232;DHT22;1628;48.884;9.210;2022-10-31T08:41:47;18.80;99.90
3232;DHT22;1628;48.884;9.210;2022-10-31T08:44:14;18.70;99.90
3232;DHT22;1628;48.884;9.210;2022-10-31T08:46:41;18.50;99.90
3232;DHT22;1628;48.884;9.210;2022-10-31T08:49:08;18.40;99.90
3232;DHT22;1628;48.884;9.210;2022-10-31T08:51:35;18.20;99.90
3232;DHT22;1628;48.884;9.210;2022-10-31T08:54:02;18.20;99.90
3232;DHT22;1628;48.884;9.210;2022-10-31T08:56:28;18.10;99.90
3232;DHT22;1628;48.884;9.210;2022-10-31T08:58:55;18.10;99.90
3232;DHT22;1628;48.884;9.210;2022-10-31T09:01:23;18.10;99.90
3232;DHT22;1628;48.884;9.210;2022-10-31T09:03:50;18.20;99.90
3232;DHT22;1628;48.884;9.210;2022-10-31T09:06:17;18.20;99.90
3232;DHT22;1628;48.884;9.210;2022-10-31T09:08:43;18.20;99.90
3232;DHT22;1628;48.884;9.210;2022-10-31T09:11:10;18.20;99.90
3232;DHT22;1628;48.884;9.210;2022-10-31T09:13:37;18.20;99.90
3232;DHT22;1628;48.884;9.210;2022-10-31T09:16:04;18.40;99.90
3232;DHT22;1628;48.884;9.210;2022-10-31T09:18:32;18.40;99.90
3232;DHT22;1628;48.884;9.210;2022-10-31T09:20:59;18.60;99.90
3232;DHT22;1628;48.884;9.210;2022-10-31T09:23:26;18.80;99.90
3232;DHT22;1628;48.884;9.210;2022-10-31T09:25:53;19.10;99.90
3232;DHT22;1628;48.884;9.210;2022-10-31T09:28:23;19.40;99.90
3232;DHT22;1628;48.884;9.210;2022-10-31T09:30:51;19.40;99.90
3232;DHT22;1628;48.884;9.210;2022-10-31T09:33:18;19.40;99.90
3232;DHT22;1628;48.884;9.210;2022-10-31T09:35:47;19.50;99.90
3232;DHT22;1628;48.884;9.210;2022-10-31T09:38:15;19.60;99.90
3232;DHT22;1628;48.884;9.210;2022-10-31T09:40:45;19.50;99.90
3232;DHT22;1628;48.884;9.210;2022-10-31T09:43:15;19.30;99.90
3232;DHT22;1628;48.884;9.210;2022-10-31T09:45:52;19.20;99.90
3232;DHT22;1628;48.884;9.210;2022-10-31T09:48:29;19.40;99.90
3232;DHT22;1628;48.884;9.210;2022-10-31T09:51:04;19.60;99.90
3232;DHT22;1628;48.884;9.210;2022-10-31T09:53:37;19.70;99.90
3232;DHT22;1628;48.884;9.210;2022-10-31T09:56:06;19.80;99.90
3232;DHT22;1628;48.884;9.210;2022-10-31T09:58:36;19.90;99.90
3232;DHT22;1628;48.884;9.210;2022-10-31T10:01:04;19.90;99.90
3232;DHT22;1628;48.884;9.210;2022-10-31T10:03:35;19.80;99.90
3232;DHT22;1628;48.884;9.210;2022-10-31T10:06:13;19.70;99.90
3232;DHT22;1628;48.884;9.210;2022-10-31T10:08:41;19.60;99.90
3232;DHT22;1628;48.884;9.210;2022-10-31T10:11:29;19.60;99.90
3232;DHT22;1628;48.884;9.210;2022-10-31T10:14:16;19.70;99.90
3232;DHT22;1628;48.884;9.210;2022-10-31T10:16:56;19.80;99.90
3232;DHT22;1628;48.884;9.210;2022-10-31T10:19:34;19.80;99.90
3232;DHT22;1628;48.884;9.210;2022-10-31T10:22:12;19.90;99.90
3232;DHT22;1628;48.884;9.210;2022-10-31T10:24:55;20.10;99.90
3232;DHT22;1628;48.884;9.210;2022-10-31T10:27:39;20.10;99.90
3232;DHT22;1628;48.884;9.210;2022-10-31T10:30:13;20.10;99.90
3232;DHT22;1628;48.884;9.210;2022-10-31T10:32:44;20.20;99.90
3232;DHT22;1628;48.884;9.210;2022-10-31T10:35:19;20.20;99.90
3232;DHT22;1628;48.884;9.210;2022-10-31T10:37:50;20.20;99.90
3232;DHT22;1628;48.884;9.210;2022-10-31T10:40:21;20.20;99.90
3232;DHT22;1628;48.884;9.210;2022-10-31T10:42:57;20.10;99.90
3232;DHT22;1628;48.884;9.210;2022-10-31T10:45:46;20.20;99.90
3232;DHT22;1628;48.884;9.210;2022-10-31T10:48:43;20.10;99.90
3232;DHT22;1628;48.884;9.210;2022-10-31T10:51:23;20.10;99.90
3232;DHT22;1628;48.884;9.210;2022-10-31T10:54:14;20.10;99.90
3232;DHT22;1628;48.884;9.210;2022-10-31T10:56:51;20.10;99.90
3232;DHT22;1628;48.884;9.210;2022-10-31T10:59:23;20.10;99.90
3232;DHT22;1628;48.884;9.210;2022-10-31T11:01:51;20.00;99.90
3232;DHT22;1628;48.884;9.210;2022-10-31T11:04:28;19.80;99.90
3232;DHT22;1628;48.884;9.210;2022-10-31T11:07:04;19.70;99.90
3232;DHT22;1628;48.884;9.210;2022-10-31T11:09:33;19.60;99.90
3232;DHT22;1628;48.884;9.210;2022-10-31T11:12:07;19.50;99.90
3232;DHT22;1628;48.884;9.210;2022-10-31T11:14:37;19.40;99.90
3232;DHT22;1628;48.884;9.210;2022-10-31T11:17:17;19.40;99.90
3232;DHT22;1628;48.884;9.210;2022-10-31T11:19:45;19.40;99.90
3232;DHT22;1628;48.884;9.210;2022-10-31T11:22:16;19.30;99.90
3232;DHT22;1628;48.884;9.210;2022-10-31T11:24:44;19.20;99.90
3232;DHT22;1628;48.884;9.210;2022-10-31T11:27:15;19.20;99.90
3232;DHT22;1628;48.884;9.210;2022-10-31T11:29:42;19.20;99.90
3232;DHT22;1628;48.884;9.210;2022-10-31T11:32:18;19.20;99.90
3232;DHT22;1628;48.884;9.210;2022-10-31T11:34:49;19.30;99.90
3232;DHT22;1628;48.884;9.210;2022-10-31T11:37:19;19.20;99.90
3232;DHT22;1628;48.884;9.210;2022-10-31T11:39:50;19.30;99.90
3232;DHT22;1628;48.884;9.210;2022-10-31T11:42:20;19.40;99.90
3232;DHT22;1628;48.884;9.210;2022-10-31T11:44:47;19.40;99.90
3232;DHT22;1628;48.884;9.210;2022-10-31T11:47:16;19.40;99.90
3232;DHT22;1628;48.884;9.210;2022-10-31T11:49:45;19.50;99.90
3232;DHT22;1628;48.884;9.210;2022-10-31T11:52:15;19.60;99.90
3232;DHT22;1628;48.884;9.210;2022-10-31T11:54:48;19.60;99.90
3232;DHT22;1628;48.884;9.210;2022-10-31T11:57:23;19.60;99.90
3232;DHT22;1628;48.884;9.210;2022-10-31T11:59:51;19.70;99.90
3232;DHT22;1628;48.884;9.210;2022-10-31T12:02:19;19.60;99.90
3232;DHT22;1628;48.884;9.210;2022-10-31T12:04:49;19.60;99.90
3232;DHT22;1628;48.884;9.210;2022-10-31T12:07:17;19.60;99.90
3232;DHT22;1628;48.884;9.210;2022-10-31T12:09:44;19.70;99.90
3232;DHT22;1628;48.884;9.210;2022-10-31T12:12:31;19.70;99.90
3232;DHT22;1628;48.884;9.210;2022-10-31T12:15:10;19.70;99.90
3232;DHT22;1628;48.884;9.210;2022-10-31T12:17:42;19.80;99.90
3232;DHT22;1628;48.884;9.210;2022-10-31T12:20:21;19.90;99.90
3232;DHT22;1628;48.884;9.210;2022-10-31T12:23:01;20.00;99.90
3232;DHT22;1628;48.884;9.210;2022-10-31T12:25:39;20.00;99.90
3232;DHT22;1628;48.884;9.210;2022-10-31T12:31:06;20.00;99.90
3232;DHT22;1628;48.884;9.210;2022-10-31T12:33:47;20.10;99.90
3232;DHT22;1628;48.884;9.210;2022-10-31T12:36:39;20.10;99.90
3232;DHT22;1628;48.884;9.210;2022-10-31T12:39:33;20.20;99.90
3232;DHT22;1628;48.884;9.210;2022-10-31T12:42:09;20.30;99.90
3232;DHT22;1628;48.884;9.210;2022-10-31T12:44:50;20.30;99.90
3232;DHT22;1628;48.884;9.210;2022-10-31T12:50:19;20.50;99.90
3232;DHT22;1628;48.884;9.210;2022-10-31T12:52:56;20.50;99.90
3232;DHT22;1628;48.884;9.210;2022-10-31T12:55:41;20.50;99.90
3232;DHT22;1628;48.884;9.210;2022-10-31T12:58:14;20.40;99.90
3232;DHT22;1628;48.884;9.210;2022-10-31T13:00:45;20.30;99.90
3232;DHT22;1628;48.884;9.210;2022-10-31T13:03:23;20.30;99.90
3232;DHT22;1628;48.884;9.210;2022-10-31T13:05:54;20.10;99.90
3232;DHT22;1628;48.884;9.210;2022-10-31T13:08:26;20.00;99.90
3232;DHT22;1628;48.884;9.210;2022-10-31T13:11:02;19.90;99.90
3232;DHT22;1628;48.884;9.210;2022-10-31T13:13:35;19.80;99.90
3232;DHT22;1628;48.884;9.210;2022-10-31T13:16:11;19.70;99.90
3232;DHT22;1628;48.884;9.210;2022-10-31T13:18:43;19.70;99.90
3232;DHT22;1628;48.884;9.210;2022-10-31T13:21:14;19.60;99.90
3232;DHT22;1628;48.884;9.210;2022-10-31T13:23:45;19.60;99.90
3232;DHT22;1628;48.884;9.210;2022-10-31T13:26:21;19.50;99.90
3232;DHT22;1628;48.884;9.210;2022-10-31T13:28:56;19.50;99.90
3232;DHT22;1628;48.884;9.210;2022-10-31T13:31:25;19.50;99.90
3232;DHT22;1628;48.884;9.210;2022-10-31T13:33:55;19.40;99.90
3232;DHT22;1628;48.884;9.210;2022-10-31T13:36:29;19.50;99.90
3232;DHT22;1628;48.884;9.210;2022-10-31T13:39:03;19.40;99.90
3232;DHT22;1628;48.884;9.210;2022-10-31T13:41:39;19.40;99.90
3232;DHT22;1628;48.884;9.210;2022-10-31T13:44:13;19.40;99.90
3232;DHT22;1628;48.884;9.210;2022-10-31T13:46:43;19.40;99.90
3232;DHT22;1628;48.884;9.210;2022-10-31T13:49:38;19.50;99.90
3232;DHT22;1628;48.884;9.210;2022-10-31T13:52:16;19.70;99.90
3232;DHT22;1628;48.884;9.210;2022-10-31T13:54:45;19.90;99.90
3232;DHT22;1628;48.884;9.210;2022-10-31T13:57:19;20.10;99.90
3232;DHT22;1628;48.884;9.210;2022-10-31T13:59:53;20.30;99.90
3232;DHT22;1628;48.884;9.210;2022-10-31T14:02:25;20.60;99.90
3232;DHT22;1628;48.884;9.210;2022-10-31T14:04:56;20.80;99.90
3232;DHT22;1628;48.884;9.210;2022-10-31T14:07:24;20.90;99.90
3232;DHT22;1628;48.884;9.210;2022-10-31T14:09:55;20.90;99.90
3232;DHT22;1628;48.884;9.210;2022-10-31T14:12:26;20.90;99.90
3232;DHT22;1628;48.884;9.210;2022-10-31T14:14:56;20.80;99.90
3232;DHT22;1628;48.884;9.210;2022-10-31T14:17:26;20.80;99.90
3232;DHT22;1628;48.884;9.210;2022-10-31T14:20:19;20.70;99.90
3232;DHT22;1628;48.884;9.210;2022-10-31T14:22:47;20.60;99.90
3232;DHT22;1628;48.884;9.210;2022-10-31T14:25:32;20.50;99.90
3232;DHT22;1628;48.884;9.210;2022-10-31T14:28:00;20.40;99.90
3232;DHT22;1628;48.884;9.210;2022-10-31T14:30:29;20.20;99.90
3232;DHT22;1628;48.884;9.210;2022-10-31T14:33:02;20.10;99.90
3232;DHT22;1628;48.884;9.210;2022-10-31T14:35:46;20.10;99.90
3232;DHT22;1628;48.884;9.210;2022-10-31T14:38:41;20.00;99.90
3232;DHT22;1628;48.884;9.210;2022-10-31T14:41:39;19.90;99.90
3232;DHT22;1628;48.884;9.210;2022-10-31T14:47:16;19.70;99.90
3232;DHT22;1628;48.884;9.210;2022-10-31T14:50:14;19.60;99.90
3232;DHT22;1628;48.884;9.210;2022-10-31T14:52:48;19.60;99.90
3232;DHT22;1628;48.884;9.210;2022-10-31T14:55:16;19.50;99.90
3232;DHT22;1628;48.884;9.210;2022-10-31T14:57:48;19.50;99.90
3232;DHT22;1628;48.884;9.210;2022-10-31T15:00:18;19.50;99.90
3232;DHT22;1628;48.884;9.210;2022-10-31T15:02:52;19.50;99.90
3232;DHT22;1628;48.884;9.210;2022-10-31T15:05:25;19.40;99.90
3232;DHT22;1628;48.884;9.210;2022-10-31T15:07:53;19.40;99.90
3232;DHT22;1628;48.884;9.210;2022-10-31T15:10:23;19.40;99.90
3232;DHT22;1628;48.884;9.210;2022-10-31T15:12:51;19.40;99.90
3232;DHT22;1628;48.884;9.210;2022-10-31T15:15:20;19.40;99.90
3232;DHT22;1628;48.884;9.210;2022-10-31T15:17:49;19.30;99.90
3232;DHT22;1628;48.884;9.210;2022-10-31T15:20:19;19.30;99.90
3232;DHT22;1628;48.884;9.210;2022-10-31T15:22:48;19.20;99.90
3232;DHT22;1628;48.884;9.210;2022-10-31T15:25:18;19.10;99.90
3232;DHT22;1628;48.884;9.210;2022-10-31T15:27:46;19.00;99.90
3232;DHT22;1628;48.884;9.210;2022-10-31T15:30:18;18.90;99.90
3232;DHT22;1628;48.884;9.210;2022-10-31T15:32:47;18.80;99.90
3232;DHT22;1628;48.884;9.210;2022-10-31T15:35:20;18.70;99.90
3232;DHT22;1628;48.884;9.210;2022-10-31T15:37:49;18.70;99.90
3232;DHT22;1628;48.884;9.210;2022-10-31T15:40:17;18.70;99.90
3232;DHT22;1628;48.884;9.210;2022-10-31T15:42:47;18.70;99.90
3232;DHT22;1628;48.884;9.210;2022-10-31T15:45:20;18.60;99.90
3232;DHT22;1628;48.884;9.210;2022-10-31T15:47:54;18.50;99.90
3232;DHT22;1628;48.884;9.210;2022-10-31T15:50:25;18.50;99.90
3232;DHT22;1628;48.884;9.210;2022-10-31T15:52:55;18.50;99.90
3232;DHT22;1628;48.884;9.210;2022-10-31T15:55:24;18.40;99.90
3232;DHT22;1628;48.884;9.210;2022-10-31T15:57:55;18.30;99.90
3232;DHT22;1628;48.884;9.210;2022-10-31T16:00:25;18.20;99.90
3232;DHT22;1628;48.884;9.210;2022-10-31T16:03:03;18.00;99.90
3232;DHT22;1628;48.884;9.210;2022-10-31T16:05:35;17.90;99.90
3232;DHT22;1628;48.884;9.210;2022-10-31T16:08:04;17.80;99.90
3232;DHT22;1628;48.884;9.210;2022-10-31T16:10:34;17.70;99.90
3232;DHT22;1628;48.884;9.210;2022-10-31T16:13:01;17.70;99.90
3232;DHT22;1628;48.884;9.210;2022-10-31T16:15:28;17.70;99.90
3232;DHT22;1628;48.884;9.210;2022-10-31T16:17:56;17.60;99.90
3232;DHT22;1628;48.884;9.210;2022-10-31T16:20:25;17.40;99.90
3232;DHT22;1628;48.884;9.210;2022-10-31T16:22:54;17.30;99.90
3232;DHT22;1628;48.884;9.210;2022-10-31T16:25:26;17.30;99.90
3232;DHT22;1628;48.884;9.210;2022-10-31T16:27:55;17.20;99.90
3232;DHT22;1628;48.884;9.210;2022-10-31T16:30:30;17.20;99.90
3232;DHT22;1628;48.884;9.210;2022-10-31T16:33:01;17.20;99.90
3232;DHT22;1628;48.884;9.210;2022-10-31T16:35:32;17.20;99.90
3232;DHT22;1628;48.884;9.210;2022-10-31T16:37:59;17.10;99.90
3232;DHT22;1628;48.884;9.210;2022-10-31T16:40:28;17.00;99.90
3232;DHT22;1628;48.884;9.210;2022-10-31T16:42:57;17.00;99.90
3232;DHT22;1628;48.884;9.210;2022-10-31T16:45:26;16.90;99.90
3232;DHT22;1628;48.884;9.210;2022-10-31T16:47:54;16.80;99.90
3232;DHT22;1628;48.884;9.210;2022-10-31T16:50:27;16.80;99.90
3232;DHT22;1628;48.884;9.210;2022-10-31T16:52:54;16.70;99.90
3232;DHT22;1628;48.884;9.210;2022-10-31T16:55:21;16.70;99.90
3232;DHT22;1628;48.884;9.210;2022-10-31T16:57:51;16.70;99.90
3232;DHT22;1628;48.884;9.210;2022-10-31T17:00:21;16.70;99.90
3232;DHT22;1628;48.884;9.210;2022-10-31T17:02:49;16.70;99.90
3232;DHT22;1628;48.884;9.210;2022-10-31T17:05:18;16.70;99.90
3232;DHT22;1628;48.884;9.210;2022-10-31T17:07:46;16.60;99.90
3232;DHT22;1628;48.884;9.210;2022-10-31T17:10:14;16.60;99.90
3232;DHT22;1628;48.884;9.210;2022-10-31T17:12:43;16.60;99.90
3232;DHT22;1628;48.884;9.210;2022-10-31T17:15:16;16.50;99.90
3232;DHT22;1628;48.884;9.210;2022-10-31T17:17:43;16.50;99.90
3232;DHT22;1628;48.884;9.210;2022-10-31T17:20:19;16.40;99.90
3232;DHT22;1628;48.884;9.210;2022-10-31T17:22:46;16.30;99.90
3232;DHT22;1628;48.884;9.210;2022-10-31T17:25:14;16.30;99.90
3232;DHT22;1628;48.884;9.210;2022-10-31T17:27:41;16.30;99.90
3232;DHT22;1628;48.884;9.210;2022-10-31T17:30:10;16.20;99.90
3232;DHT22;1628;48.884;9.210;2022-10-31T17:32:39;16.20;99.90
3232;DHT22;1628;48.884;9.210;2022-10-31T17:35:06;16.20;99.90
3232;DHT22;1628;48.884;9.210;2022-10-31T17:37:33;16.10;99.90
3232;DHT22;1628;48.884;9.210;2022-10-31T17:40:00;16.10;99.90
3232;DHT22;1628;48.884;9.210;2022-10-31T17:42:26;16.10;99.90
3232;DHT22;1628;48.884;9.210;2022-10-31T17:44:53;16.10;99.90
3232;DHT22;1628;48.884;9.210;2022-10-31T17:47:20;16.00;99.90
3232;DHT22;1628;48.884;9.210;2022-10-31T17:49:48;15.90;99.90
3232;DHT22;1628;48.884;9.210;2022-10-31T17:52:14;15.90;99.90
3232;DHT22;1628;48.884;9.210;2022-10-31T17:54:41;15.80;99.90
3232;DHT22;1628;48.884;9.210;2022-10-31T17:57:07;15.80;99.90
3232;DHT22;1628;48.884;9.210;2022-10-31T17:59:34;15.70;99.90
3232;DHT22;1628;48.884;9.210;2022-10-31T18:02:01;15.70;99.90
3232;DHT22;1628;48.884;9.210;2022-10-31T18:04:33;15.60;99.90
3232;DHT22;1628;48.884;9.210;2022-10-31T18:07:01;15.60;99.90
3232;DHT22;1628;48.884;9.210;2022-10-31T18:09:27;15.60;99.90
3232;DHT22;1628;48.884;9.210;2022-10-31T18:11:54;15.60;99.90
3232;DHT22;1628;48.884;9.210;2022-10-31T18:14:21;15.60;99.90
3232;DHT22;1628;48.884;9.210;2022-10-31T18:16:47;15.50;99.90
3232;DHT22;1628;48.884;9.210;2022-10-31T18:19:15;15.50;99.90
3232;DHT22;1628;48.884;9.210;2022-10-31T18:21:43;15.50;99.90
3232;DHT22;1628;48.884;9.210;2022-10-31T18:24:12;15.50;99.90
3232;DHT22;1628;48.884;9.210;2022-10-31T18:26:38;15.50;99.90
3232;DHT22;1628;48.884;9.210;2022-10-31T18:29:05;15.50;99.90
3232;DHT22;1628;48.884;9.210;2022-10-31T18:31:32;15.40;99.90
3232;DHT22;1628;48.884;9.210;2022-10-31T18:33:58;15.50;99.90
3232;DHT22;1628;48.884;9.210;2022-10-31T18:36:25;15.40;99.90
3232;DHT22;1628;48.884;9.210;2022-10-31T18:38:52;15.40;99.90
3232;DHT22;1628;48.884;9.210;2022-10-31T18:41:20;15.40;99.90
3232;DHT22;1628;48.884;9.210;2022-10-31T18:43:47;15.30;99.90
3232;DHT22;1628;48.884;9.210;2022-10-31T18:46:15;15.30;99.90
3232;DHT22;1628;48.884;9.210;2022-10-31T18:48:43;15.20;99.90
3232;DHT22;1628;48.884;9.210;2022-10-31T18:51:11;15.10;99.90
3232;DHT22;1628;48.884;9.210;2022-10-31T18:53:38;15.10;99.90
3232;DHT22;1628;48.884;9.210;2022-10-31T18:56:06;15.00;99.90
3232;DHT22;1628;48.884;9.210;2022-10-31T18:58:35;15.00;99.90
3232;DHT22;1628;48.884;9.210;2022-10-31T19:01:05;14.90;99.90
3232;DHT22;1628;48.884;9.210;2022-10-31T19:03:32;14.90;99.90
3232;DHT22;1628;48.884;9.210;2022-10-31T19:05:59;14.90;99.90
3232;DHT22;1628;48.884;9.210;2022-10-31T19:08:25;14.90;99.90
3232;DHT22;1628;48.884;9.210;2022-10-31T19:10:52;14.80;99.90
3232;DHT22;1628;48.884;9.210;2022-10-31T19:13:20;14.80;99.90
3232;DHT22;1628;48.884;9.210;2022-10-31T19:15:48;14.80;99.90
3232;DHT22;1628;48.884;9.210;2022-10-31T19:18:14;14.80;99.90
3232;DHT22;1628;48.884;9.210;2022-10-31T19:20:41;14.80;99.90
3232;DHT22;1628;48.884;9.210;2022-10-31T19:23:08;14.80;99.90
3232;DHT22;1628;48.884;9.210;2022-10-31T19:25:34;14.80;99.90
3232;DHT22;1628;48.884;9.210;2022-10-31T19:28:02;14.80;99.90
3232;DHT22;1628;48.884;9.210;2022-10-31T19:30:29;14.70;99.90
3232;DHT22;1628;48.884;9.210;2022-10-31T19:32:57;14.70;99.90
3232;DHT22;1628;48.884;9.210;2022-10-31T19:35:23;14.70;99.90
3232;DHT22;1628;48.884;9.210;2022-10-31T19:37:50;14.70;99.90
3232;DHT22;1628;48.884;9.210;2022-10-31T19:40:17;14.70;99.90
3232;DHT22;1628;48.884;9.210;2022-10-31T19:42:45;14.70;99.90
3232;DHT22;1628;48.884;9.210;2022-10-31T19:45:11;14.70;99.90
3232;DHT22;1628;48.884;9.210;2022-10-31T19:47:38;14.80;99.90
3232;DHT22;1628;48.884;9.210;2022-10-31T19:50:07;14.80;99.90
3232;DHT22;1628;48.884;9.210;2022-10-31T19:52:34;14.80;99.90
3232;DHT22;1628;48.884;9.210;2022-10-31T19:55:02;14.80;99.90
3232;DHT22;1628;48.884;9.210;2022-10-31T19:57:28;14.80;99.90
3232;DHT22;1628;48.884;9.210;2022-10-31T19:59:58;14.80;99.90
3232;DHT22;1628;48.884;9.210;2022-10-31T20:02:24;14.90;99.90
3232;DHT22;1628;48.884;9.210;2022-10-31T20:04:51;14.90;99.90
3232;DHT22;1628;48.884;9.210;2022-10-31T20:07:19;14.90;99.90
3232;DHT22;1628;48.884;9.210;2022-10-31T20:09:46;14.80;99.90
3232;DHT22;1628;48.884;9.210;2022-10-31T20:12:13;14.80;99.90
3232;DHT22;1628;48.884;9.210;2022-10-31T20:14:39;14.80;99.90
3232;DHT22;1628;48.884;9.210;2022-10-31T20:17:07;14.80;99.90
3232;DHT22;1628;48.884;9.210;2022-10-31T20:19:34;14.80;99.90
3232;DHT22;1628;48.884;9.210;2022-10-31T20:22:00;14.80;99.90
3232;DHT22;1628;48.884;9.210;2022-10-31T20:24:30;14.80;99.90
3232;DHT22;1628;48.884;9.210;2022-10-31T20:26:57;14.70;99.90
3232;DHT22;1628;48.884;9.210;2022-10-31T20:29:23;14.70;99.90
3232;DHT22;1628;48.884;9.210;2022-10-31T20:31:50;14.70;99.90
3232;DHT22;1628;48.884;9.210;2022-10-31T20:34:17;14.70;99.90
3232;DHT22;1628;48.884;9.210;2022-10-31T20:36:43;14.70;99.90
3232;DHT22;1628;48.884;9.210;2022-10-31T20:39:11;14.70;99.90
3232;DHT22;1628;48.884;9.210;2022-10-31T20:41:39;14.70;99.90
3232;DHT22;1628;48.884;9.210;2022-10-31T20:44:05;14.70;99.90
3232;DHT22;1628;48.884;9.210;2022-10-31T20:46:32;14.70;99.90
3232;DHT22;1628;48.884;9.210;2022-10-31T20:48:59;14.60;99.90
3232;DHT22;1628;48.884;9.210;2022-10-31T20:51:27;14.70;99.90
3232;DHT22;1628;48.884;9.210;2022-10-31T20:53:57;14.70;99.90
3232;DHT22;1628;48.884;9.210;2022-10-31T20:56:25;14.80;99.90
3232;DHT22;1628;48.884;9.210;2022-10-31T20:58:55;14.80;99.90
3232;DHT22;1628;48.884;9.210;2022-10-31T21:01:24;14.90;99.90
3232;DHT22;1628;48.884;9.210;2022-10-31T21:03:52;14.90;99.90
3232;DHT22;1628;48.884;9.210;2022-10-31T21:06:19;14.90;99.90
3232;DHT22;1628;48.884;9.210;2022-10-31T21:08:47;14.90;99.90
3232;DHT22;1628;48.884;9.210;2022-10-31T21:11:16;15.00;99.90
3232;DHT22;1628;48.884;9.210;2022-10-31T21:13:44;15.00;99.90
3232;DHT22;1628;48.884;9.210;2022-10-31T21:16:14;15.00;99.90
3232;DHT22;1628;48.884;9.210;2022-10-31T21:18:42;15.00;99.90
3232;DHT22;1628;48.884;9.210;2022-10-31T21:21:11;14.90;99.90
3232;DHT22;1628;48.884;9.210;2022-10-31T21:23:38;14.90;99.90
3232;DHT22;1628;48.884;9.210;2022-10-31T21:26:05;14.80;99.90
3232;DHT22;1628;48.884;9.210;2022-10-31T21:28:32;14.70;99.90